sensor_id;sensor_type;location;lat;lon;timestamp;temperature;humidity
13521;DHT22;6832;51.186;3.236;2022-07-29T00:01:30;23.40;51.50
13521;DHT22;6832;51.186;3.236;2022-07-29T00:04:06;23.30;51.60
13521;DHT22;6832;51.186;3.236;2022-07-29T00:06:35;23.30;51.70
13521;DHT22;6832;51.186;3.236;2022-07-29T00:09:06;23.20;51.60
13521;DHT22;6832;51.186;3.236;2022-07-29T00:11:34;23.30;51.90
13521;DHT22;6832;51.186;3.236;2022-07-29T00:14:01;23.20;51.60
13521;DHT22;6832;51.186;3.236;2022-07-29T00:16:29;23.20;51.70
13521;DHT22;6832;51.186;3.236;2022-07-29T00:18:58;23.10;51.80
13521;DHT22;6832;51.186;3.236;2022-07-29T00:21:26;23.10;51.90
13521;DHT22;6832;51.186;3.236;2022-07-29T00:23:55;23.10;51.90
13521;DHT22;6832;51.186;3.236;2022-07-29T00:26:23;23.10;52.00
13521;DHT22;6832;51.186;3.236;2022-07-29T00:28:50;23.10;52.10
13521;DHT22;6832;51.186;3.236;2022-07-29T00:31:20;23.10;52.00
13521;DHT22;6832;51.186;3.236;2022-07-29T00:33:47;23.00;52.20
13521;DHT22;6832;51.186;3.236;2022-07-29T00:36:16;23.00;52.10
13521;DHT22;6832;51.186;3.236;2022-07-29T00:38:47;22.90;52.10
13521;DHT22;6832;51.186;3.236;2022-07-29T00:41:17;22.90;52.30
13521;DHT22;6832;51.186;3.236;2022-07-29T00:43:44;22.90;52.40
13521;DHT22;6832;51.186;3.236;2022-07-29T00:46:12;22.80;52.30
13521;DHT22;6832;51.186;3.236;2022-07-29T00:48:39;22.90;52.50
13521;DHT22;6832;51.186;3.236;2022-07-29T00:51:07;22.80;52.40
13521;DHT22;6832;51.186;3.236;2022-07-29T00:53:36;22.70;52.60
13521;DHT22;6832;51.186;3.236;2022-07-29T00:56:04;22.70;52.70
13521;DHT22;6832;51.186;3.236;2022-07-29T00:58:35;22.70;52.70
13521;DHT22;6832;51.186;3.236;2022-07-29T01:01:03;22.70;53.00
13521;DHT22;6832;51.186;3.236;2022-07-29T01:03:30;22.60;52.80
13521;DHT22;6832;51.186;3.236;2022-07-29T01:05:58;22.60;52.80
13521;DHT22;6832;51.186;3.236;2022-07-29T01:08:28;22.60;52.80
13521;DHT22;6832;51.186;3.236;2022-07-29T01:10:59;22.60;53.00
13521;DHT22;6832;51.186;3.236;2022-07-29T01:13:32;22.50;53.10
13521;DHT22;6832;51.186;3.236;2022-07-29T01:16:10;22.50;53.20
13521;DHT22;6832;51.186;3.236;2022-07-29T01:18:44;22.40;53.10
13521;DHT22;6832;51.186;3.236;2022-07-29T01:21:24;22.40;53.20
13521;DHT22;6832;51.186;3.236;2022-07-29T01:24:20;22.40;53.40
13521;DHT22;6832;51.186;3.236;2022-07-29T01:26:57;22.40;53.50
13521;DHT22;6832;51.186;3.236;2022-07-29T01:29:30;22.30;53.30
13521;DHT22;6832;51.186;3.236;2022-07-29T01:32:01;22.30;53.40
13521;DHT22;6832;51.186;3.236;2022-07-29T01:34:37;22.20;53.30
13521;DHT22;6832;51.186;3.236;2022-07-29T01:37:18;22.20;53.50
13521;DHT22;6832;51.186;3.236;2022-07-29T01:39:48;22.20;53.50
13521;DHT22;6832;51.186;3.236;2022-07-29T01:42:36;22.10;53.40
13521;DHT22;6832;51.186;3.236;2022-07-29T01:45:12;22.10;53.80
13521;DHT22;6832;51.186;3.236;2022-07-29T01:47:43;22.10;53.80
13521;DHT22;6832;51.186;3.236;2022-07-29T01:50:38;22.00;54.20
13521;DHT22;6832;51.186;3.236;2022-07-29T01:53:08;22.00;54.10
13521;DHT22;6832;51.186;3.236;2022-07-29T01:55:40;21.90;53.60
13521;DHT22;6832;51.186;3.236;2022-07-29T01:58:10;21.90;53.80
13521;DHT22;6832;51.186;3.236;2022-07-29T02:00:41;21.90;53.80
13521;DHT22;6832;51.186;3.236;2022-07-29T02:03:10;21.80;53.80
13521;DHT22;6832;51.186;3.236;2022-07-29T02:05:53;21.80;53.90
13521;DHT22;6832;51.186;3.236;2022-07-29T02:08:24;21.80;54.20
13521;DHT22;6832;51.186;3.236;2022-07-29T02:10:54;21.80;54.00
13521;DHT22;6832;51.186;3.236;2022-07-29T02:13:23;21.80;54.10
13521;DHT22;6832;51.186;3.236;2022-07-29T02:15:55;21.70;54.00
13521;DHT22;6832;51.186;3.236;2022-07-29T02:18:40;21.70;54.20
13521;DHT22;6832;51.186;3.236;2022-07-29T02:21:08;21.60;54.50
13521;DHT22;6832;51.186;3.236;2022-07-29T02:26:38;21.60;54.70
13521;DHT22;6832;51.186;3.236;2022-07-29T02:29:09;21.50;54.40
13521;DHT22;6832;51.186;3.236;2022-07-29T02:31:39;21.50;54.40
13521;DHT22;6832;51.186;3.236;2022-07-29T02:34:10;21.50;54.30
13521;DHT22;6832;51.186;3.236;2022-07-29T02:36:40;21.50;54.50
13521;DHT22;6832;51.186;3.236;2022-07-29T02:39:12;21.40;54.40
13521;DHT22;6832;51.186;3.236;2022-07-29T02:41:45;21.40;54.70
13521;DHT22;6832;51.186;3.236;2022-07-29T02:44:16;21.40;54.60
13521;DHT22;6832;51.186;3.236;2022-07-29T02:46:51;21.40;54.70
13521;DHT22;6832;51.186;3.236;2022-07-29T02:49:30;21.30;54.90
13521;DHT22;6832;51.186;3.236;2022-07-29T02:52:03;21.30;55.00
13521;DHT22;6832;51.186;3.236;2022-07-29T02:54:33;21.30;55.00
13521;DHT22;6832;51.186;3.236;2022-07-29T02:57:06;21.30;54.90
13521;DHT22;6832;51.186;3.236;2022-07-29T02:59:37;21.30;55.00
13521;DHT22;6832;51.186;3.236;2022-07-29T03:02:10;21.20;55.00
13521;DHT22;6832;51.186;3.236;2022-07-29T03:04:40;21.20;55.10
13521;DHT22;6832;51.186;3.236;2022-07-29T03:07:10;21.20;55.10
13521;DHT22;6832;51.186;3.236;2022-07-29T03:09:41;21.10;55.20
13521;DHT22;6832;51.186;3.236;2022-07-29T03:12:10;21.10;55.30
13521;DHT22;6832;51.186;3.236;2022-07-29T03:14:39;21.10;55.40
13521;DHT22;6832;51.186;3.236;2022-07-29T03:17:10;21.10;55.40
13521;DHT22;6832;51.186;3.236;2022-07-29T03:19:39;21.00;55.50
13521;DHT22;6832;51.186;3.236;2022-07-29T03:22:26;21.00;55.40
13521;DHT22;6832;51.186;3.236;2022-07-29T03:24:53;21.00;55.90
13521;DHT22;6832;51.186;3.236;2022-07-29T03:27:20;21.00;55.40
13521;DHT22;6832;51.186;3.236;2022-07-29T03:29:48;20.90;55.50
13521;DHT22;6832;51.186;3.236;2022-07-29T03:32:17;20.90;55.60
13521;DHT22;6832;51.186;3.236;2022-07-29T03:34:44;20.90;55.70
13521;DHT22;6832;51.186;3.236;2022-07-29T03:37:11;20.80;55.60
13521;DHT22;6832;51.186;3.236;2022-07-29T03:39:40;20.80;55.70
13521;DHT22;6832;51.186;3.236;2022-07-29T03:42:30;20.80;55.90
13521;DHT22;6832;51.186;3.236;2022-07-29T03:45:12;20.80;56.20
13521;DHT22;6832;51.186;3.236;2022-07-29T03:47:43;20.70;56.20
13521;DHT22;6832;51.186;3.236;2022-07-29T03:50:13;20.70;56.00
13521;DHT22;6832;51.186;3.236;2022-07-29T03:52:41;20.70;55.90
13521;DHT22;6832;51.186;3.236;2022-07-29T03:55:09;20.70;56.00
13521;DHT22;6832;51.186;3.236;2022-07-29T03:57:38;20.60;56.10
13521;DHT22;6832;51.186;3.236;2022-07-29T04:00:07;20.60;56.10
13521;DHT22;6832;51.186;3.236;2022-07-29T04:02:34;20.60;56.10
13521;DHT22;6832;51.186;3.236;2022-07-29T04:05:05;20.60;56.10
13521;DHT22;6832;51.186;3.236;2022-07-29T04:07:53;20.60;56.40
13521;DHT22;6832;51.186;3.236;2022-07-29T04:10:22;20.50;56.80
13521;DHT22;6832;51.186;3.236;2022-07-29T04:12:49;20.50;56.40
13521;DHT22;6832;51.186;3.236;2022-07-29T04:15:20;20.50;56.30
13521;DHT22;6832;51.186;3.236;2022-07-29T04:17:47;20.50;56.80
13521;DHT22;6832;51.186;3.236;2022-07-29T04:20:39;20.40;56.60
13521;DHT22;6832;51.186;3.236;2022-07-29T04:23:06;20.30;57.20
13521;DHT22;6832;51.186;3.236;2022-07-29T04:25:39;20.30;56.70
13521;DHT22;6832;51.186;3.236;2022-07-29T04:28:09;20.30;57.10
13521;DHT22;6832;51.186;3.236;2022-07-29T04:30:37;20.30;57.00
13521;DHT22;6832;51.186;3.236;2022-07-29T04:33:06;20.30;56.90
13521;DHT22;6832;51.186;3.236;2022-07-29T04:35:35;20.30;57.00
13521;DHT22;6832;51.186;3.236;2022-07-29T04:38:10;20.20;57.00
13521;DHT22;6832;51.186;3.236;2022-07-29T04:43:03;20.20;57.10
13521;DHT22;6832;51.186;3.236;2022-07-29T04:45:36;20.20;57.20
13521;DHT22;6832;51.186;3.236;2022-07-29T04:48:05;20.20;57.50
13521;DHT22;6832;51.186;3.236;2022-07-29T04:50:32;20.20;57.40
13521;DHT22;6832;51.186;3.236;2022-07-29T04:53:02;20.20;57.40
13521;DHT22;6832;51.186;3.236;2022-07-29T04:55:31;20.20;58.30
13521;DHT22;6832;51.186;3.236;2022-07-29T04:57:59;20.10;57.80
13521;DHT22;6832;51.186;3.236;2022-07-29T05:00:27;20.10;57.80
13521;DHT22;6832;51.186;3.236;2022-07-29T05:02:55;20.10;57.90
13521;DHT22;6832;51.186;3.236;2022-07-29T05:05:30;20.10;58.00
13521;DHT22;6832;51.186;3.236;2022-07-29T05:07:58;20.20;58.60
13521;DHT22;6832;51.186;3.236;2022-07-29T05:10:28;20.10;58.20
13521;DHT22;6832;51.186;3.236;2022-07-29T05:12:56;20.20;58.50
13521;DHT22;6832;51.186;3.236;2022-07-29T05:15:24;20.10;58.50
13521;DHT22;6832;51.186;3.236;2022-07-29T05:17:52;20.10;58.50
13521;DHT22;6832;51.186;3.236;2022-07-29T05:20:23;20.10;58.60
13521;DHT22;6832;51.186;3.236;2022-07-29T05:22:54;20.20;58.90
13521;DHT22;6832;51.186;3.236;2022-07-29T05:28:45;20.20;59.30
13521;DHT22;6832;51.186;3.236;2022-07-29T05:31:25;20.20;58.80
13521;DHT22;6832;51.186;3.236;2022-07-29T05:33:52;20.30;59.50
13521;DHT22;6832;51.186;3.236;2022-07-29T05:36:22;20.30;59.00
13521;DHT22;6832;51.186;3.236;2022-07-29T05:38:51;20.30;59.10
13521;DHT22;6832;51.186;3.236;2022-07-29T05:41:22;20.30;59.20
13521;DHT22;6832;51.186;3.236;2022-07-29T05:43:52;20.40;59.20
13521;DHT22;6832;51.186;3.236;2022-07-29T05:46:19;20.40;59.30
13521;DHT22;6832;51.186;3.236;2022-07-29T05:48:52;20.50;59.20
13521;DHT22;6832;51.186;3.236;2022-07-29T05:51:42;20.50;59.50
13521;DHT22;6832;51.186;3.236;2022-07-29T05:54:09;20.60;59.90
13521;DHT22;6832;51.186;3.236;2022-07-29T05:56:38;20.60;59.20
13521;DHT22;6832;51.186;3.236;2022-07-29T05:59:08;20.60;59.30
13521;DHT22;6832;51.186;3.236;2022-07-29T06:01:35;20.60;59.30
13521;DHT22;6832;51.186;3.236;2022-07-29T06:04:11;20.70;59.20
13521;DHT22;6832;51.186;3.236;2022-07-29T06:06:38;20.70;59.20
13521;DHT22;6832;51.186;3.236;2022-07-29T06:09:05;20.90;59.20
13521;DHT22;6832;51.186;3.236;2022-07-29T06:11:35;20.90;59.10
13521;DHT22;6832;51.186;3.236;2022-07-29T06:14:05;21.00;59.30
13521;DHT22;6832;51.186;3.236;2022-07-29T06:16:33;21.00;59.20
13521;DHT22;6832;51.186;3.236;2022-07-29T06:19:01;21.00;59.00
13521;DHT22;6832;51.186;3.236;2022-07-29T06:21:29;21.10;59.00
13521;DHT22;6832;51.186;3.236;2022-07-29T06:23:57;21.10;59.00
13521;DHT22;6832;51.186;3.236;2022-07-29T06:26:37;21.20;59.10
13521;DHT22;6832;51.186;3.236;2022-07-29T06:29:05;21.20;59.40
13521;DHT22;6832;51.186;3.236;2022-07-29T06:31:34;21.30;59.20
13521;DHT22;6832;51.186;3.236;2022-07-29T06:34:02;21.40;59.30
13521;DHT22;6832;51.186;3.236;2022-07-29T06:36:29;21.40;59.10
13521;DHT22;6832;51.186;3.236;2022-07-29T06:38:56;21.40;59.20
13521;DHT22;6832;51.186;3.236;2022-07-29T06:41:23;21.50;59.30
13521;DHT22;6832;51.186;3.236;2022-07-29T06:43:51;21.50;59.30
13521;DHT22;6832;51.186;3.236;2022-07-29T06:46:20;21.60;59.30
13521;DHT22;6832;51.186;3.236;2022-07-29T06:48:52;21.70;59.40
13521;DHT22;6832;51.186;3.236;2022-07-29T06:51:22;21.70;59.40
13521;DHT22;6832;51.186;3.236;2022-07-29T06:53:51;21.80;59.30
13521;DHT22;6832;51.186;3.236;2022-07-29T06:56:23;21.80;59.10
13521;DHT22;6832;51.186;3.236;2022-07-29T06:59:31;21.90;59.90
13521;DHT22;6832;51.186;3.236;2022-07-29T07:02:25;21.90;59.10
13521;DHT22;6832;51.186;3.236;2022-07-29T07:05:13;22.00;59.00
13521;DHT22;6832;51.186;3.236;2022-07-29T07:07:51;22.10;58.90
13521;DHT22;6832;51.186;3.236;2022-07-29T07:10:30;22.20;59.00
13521;DHT22;6832;51.186;3.236;2022-07-29T07:13:05;22.20;58.80
13521;DHT22;6832;51.186;3.236;2022-07-29T07:15:37;22.30;58.70
13521;DHT22;6832;51.186;3.236;2022-07-29T07:18:11;22.30;58.60
13521;DHT22;6832;51.186;3.236;2022-07-29T07:20:41;22.40;58.80
13521;DHT22;6832;51.186;3.236;2022-07-29T07:23:15;22.40;58.80
13521;DHT22;6832;51.186;3.236;2022-07-29T07:25:43;22.60;58.80
13521;DHT22;6832;51.186;3.236;2022-07-29T07:28:18;22.60;58.50
13521;DHT22;6832;51.186;3.236;2022-07-29T07:34:09;22.70;58.80
13521;DHT22;6832;51.186;3.236;2022-07-29T07:36:39;22.80;58.60
13521;DHT22;6832;51.186;3.236;2022-07-29T07:39:06;22.80;58.60
13521;DHT22;6832;51.186;3.236;2022-07-29T07:41:37;22.90;58.50
13521;DHT22;6832;51.186;3.236;2022-07-29T07:44:09;22.90;58.40
13521;DHT22;6832;51.186;3.236;2022-07-29T07:46:41;23.00;59.10
13521;DHT22;6832;51.186;3.236;2022-07-29T07:49:29;23.00;58.60
13521;DHT22;6832;51.186;3.236;2022-07-29T07:52:11;23.10;58.60
13521;DHT22;6832;51.186;3.236;2022-07-29T07:54:48;23.20;58.60
13521;DHT22;6832;51.186;3.236;2022-07-29T07:57:35;23.30;58.40
13521;DHT22;6832;51.186;3.236;2022-07-29T08:00:17;23.40;58.50
13521;DHT22;6832;51.186;3.236;2022-07-29T08:02:52;23.40;58.40
13521;DHT22;6832;51.186;3.236;2022-07-29T08:05:25;23.50;58.40
13521;DHT22;6832;51.186;3.236;2022-07-29T08:08:09;23.60;58.40
13521;DHT22;6832;51.186;3.236;2022-07-29T08:11:56;23.70;58.50
13521;DHT22;6832;51.186;3.236;2022-07-29T08:13:46;23.70;58.50
13521;DHT22;6832;51.186;3.236;2022-07-29T08:20:29;23.90;57.90
13521;DHT22;6832;51.186;3.236;2022-07-29T08:23:05;24.00;57.90
13521;DHT22;6832;51.186;3.236;2022-07-29T08:25:39;24.10;57.80
13521;DHT22;6832;51.186;3.236;2022-07-29T08:28:33;24.10;57.50
13521;DHT22;6832;51.186;3.236;2022-07-29T08:31:14;24.20;57.30
13521;DHT22;6832;51.186;3.236;2022-07-29T08:37:27;24.40;57.40
13521;DHT22;6832;51.186;3.236;2022-07-29T08:42:28;24.60;57.10
13521;DHT22;6832;51.186;3.236;2022-07-29T08:45:23;24.70;57.30
13521;DHT22;6832;51.186;3.236;2022-07-29T08:51:23;24.80;56.60
13521;DHT22;6832;51.186;3.236;2022-07-29T08:53:55;24.90;56.80
13521;DHT22;6832;51.186;3.236;2022-07-29T08:56:23;25.00;56.70
13521;DHT22;6832;51.186;3.236;2022-07-29T08:58:52;25.20;56.80
13521;DHT22;6832;51.186;3.236;2022-07-29T09:01:25;25.40;56.10
13521;DHT22;6832;51.186;3.236;2022-07-29T09:03:55;25.50;55.30
13521;DHT22;6832;51.186;3.236;2022-07-29T09:06:24;25.70;55.40
13521;DHT22;6832;51.186;3.236;2022-07-29T09:08:59;25.90;55.30
13521;DHT22;6832;51.186;3.236;2022-07-29T09:11:27;26.10;54.80
13521;DHT22;6832;51.186;3.236;2022-07-29T09:13:55;26.30;54.70
13521;DHT22;6832;51.186;3.236;2022-07-29T09:16:24;26.50;54.50
13521;DHT22;6832;51.186;3.236;2022-07-29T09:18:52;26.70;54.10
13521;DHT22;6832;51.186;3.236;2022-07-29T09:21:19;26.90;53.70
13521;DHT22;6832;51.186;3.236;2022-07-29T09:24:07;27.10;53.40
13521;DHT22;6832;51.186;3.236;2022-07-29T09:26:40;27.30;52.30
13521;DHT22;6832;51.186;3.236;2022-07-29T09:29:13;27.50;52.20
13521;DHT22;6832;51.186;3.236;2022-07-29T09:31:43;27.70;51.70
13521;DHT22;6832;51.186;3.236;2022-07-29T09:34:16;27.90;51.90
13521;DHT22;6832;51.186;3.236;2022-07-29T09:36:50;28.10;50.30
13521;DHT22;6832;51.186;3.236;2022-07-29T09:39:29;28.20;51.10
13521;DHT22;6832;51.186;3.236;2022-07-29T09:42:00;28.40;51.10
13521;DHT22;6832;51.186;3.236;2022-07-29T09:44:41;28.50;50.90
13521;DHT22;6832;51.186;3.236;2022-07-29T09:47:09;28.70;49.90
13521;DHT22;6832;51.186;3.236;2022-07-29T09:49:52;28.80;50.60
13521;DHT22;6832;51.186;3.236;2022-07-29T09:52:47;28.90;49.50
13521;DHT22;6832;51.186;3.236;2022-07-29T09:55:16;29.10;49.10
13521;DHT22;6832;51.186;3.236;2022-07-29T09:57:44;29.20;49.80
13521;DHT22;6832;51.186;3.236;2022-07-29T10:00:14;29.30;49.60
13521;DHT22;6832;51.186;3.236;2022-07-29T10:02:45;29.40;49.20
13521;DHT22;6832;51.186;3.236;2022-07-29T10:05:21;29.50;49.30
13521;DHT22;6832;51.186;3.236;2022-07-29T10:07:49;29.60;48.40
13521;DHT22;6832;51.186;3.236;2022-07-29T10:10:23;29.70;49.10
13521;DHT22;6832;51.186;3.236;2022-07-29T10:12:54;29.80;48.40
13521;DHT22;6832;51.186;3.236;2022-07-29T10:15:25;29.90;48.20
13521;DHT22;6832;51.186;3.236;2022-07-29T10:17:54;30.00;48.00
13521;DHT22;6832;51.186;3.236;2022-07-29T10:20:32;30.10;47.40
13521;DHT22;6832;51.186;3.236;2022-07-29T10:23:13;30.20;46.40
13521;DHT22;6832;51.186;3.236;2022-07-29T10:25:57;30.30;47.20
13521;DHT22;6832;51.186;3.236;2022-07-29T10:28:40;30.30;45.80
13521;DHT22;6832;51.186;3.236;2022-07-29T10:31:18;30.50;46.10
13521;DHT22;6832;51.186;3.236;2022-07-29T10:33:54;30.50;46.50
13521;DHT22;6832;51.186;3.236;2022-07-29T10:36:38;30.60;45.90
13521;DHT22;6832;51.186;3.236;2022-07-29T10:39:17;30.70;45.40
13521;DHT22;6832;51.186;3.236;2022-07-29T10:47:43;30.90;45.70
13521;DHT22;6832;51.186;3.236;2022-07-29T10:50:13;31.00;45.60
13521;DHT22;6832;51.186;3.236;2022-07-29T10:52:55;31.10;45.20
13521;DHT22;6832;51.186;3.236;2022-07-29T10:55:41;31.10;44.80
13521;DHT22;6832;51.186;3.236;2022-07-29T10:58:17;31.20;44.30
13521;DHT22;6832;51.186;3.236;2022-07-29T11:00:46;31.40;44.20
13521;DHT22;6832;51.186;3.236;2022-07-29T11:03:47;31.30;43.30
13521;DHT22;6832;51.186;3.236;2022-07-29T11:06:16;31.50;42.70
13521;DHT22;6832;51.186;3.236;2022-07-29T11:08:44;31.40;43.30
13521;DHT22;6832;51.186;3.236;2022-07-29T11:11:35;31.50;42.30
13521;DHT22;6832;51.186;3.236;2022-07-29T11:14:07;31.50;42.50
13521;DHT22;6832;51.186;3.236;2022-07-29T11:17:02;31.40;43.50
13521;DHT22;6832;51.186;3.236;2022-07-29T11:19:30;31.50;43.30
13521;DHT22;6832;51.186;3.236;2022-07-29T11:22:02;31.50;43.50
13521;DHT22;6832;51.186;3.236;2022-07-29T11:24:31;31.50;43.00
13521;DHT22;6832;51.186;3.236;2022-07-29T11:27:14;31.60;42.70
13521;DHT22;6832;51.186;3.236;2022-07-29T11:29:52;31.60;42.00
13521;DHT22;6832;51.186;3.236;2022-07-29T11:32:22;31.70;43.20
13521;DHT22;6832;51.186;3.236;2022-07-29T11:35:12;31.70;42.60
13521;DHT22;6832;51.186;3.236;2022-07-29T11:37:42;31.70;42.80
13521;DHT22;6832;51.186;3.236;2022-07-29T11:40:15;31.90;42.20
13521;DHT22;6832;51.186;3.236;2022-07-29T11:43:00;31.90;42.30
13521;DHT22;6832;51.186;3.236;2022-07-29T11:45:45;32.00;41.80
13521;DHT22;6832;51.186;3.236;2022-07-29T11:48:17;32.10;41.60
13521;DHT22;6832;51.186;3.236;2022-07-29T11:50:45;32.20;41.70
13521;DHT22;6832;51.186;3.236;2022-07-29T11:53:14;32.30;42.10
13521;DHT22;6832;51.186;3.236;2022-07-29T11:55:45;32.30;41.20
13521;DHT22;6832;51.186;3.236;2022-07-29T11:58:14;32.40;41.80
13521;DHT22;6832;51.186;3.236;2022-07-29T12:00:46;32.50;42.30
13521;DHT22;6832;51.186;3.236;2022-07-29T12:06:17;32.70;40.20
13521;DHT22;6832;51.186;3.236;2022-07-29T12:08:45;32.80;41.50
13521;DHT22;6832;51.186;3.236;2022-07-29T12:11:22;32.90;41.40
13521;DHT22;6832;51.186;3.236;2022-07-29T12:13:53;33.00;40.80
13521;DHT22;6832;51.186;3.236;2022-07-29T12:16:34;33.10;40.90
13521;DHT22;6832;51.186;3.236;2022-07-29T12:19:19;33.20;40.00
13521;DHT22;6832;51.186;3.236;2022-07-29T12:21:49;33.30;40.40
13521;DHT22;6832;51.186;3.236;2022-07-29T12:24:22;33.40;40.20
13521;DHT22;6832;51.186;3.236;2022-07-29T12:26:51;33.40;39.60
13521;DHT22;6832;51.186;3.236;2022-07-29T12:29:28;33.50;41.80
13521;DHT22;6832;51.186;3.236;2022-07-29T12:31:57;33.50;42.30
13521;DHT22;6832;51.186;3.236;2022-07-29T12:34:29;33.70;41.20
13521;DHT22;6832;51.186;3.236;2022-07-29T12:37:05;33.70;40.90
13521;DHT22;6832;51.186;3.236;2022-07-29T12:39:35;33.70;40.40
13521;DHT22;6832;51.186;3.236;2022-07-29T12:42:19;33.70;40.20
13521;DHT22;6832;51.186;3.236;2022-07-29T12:44:58;33.70;40.30
13521;DHT22;6832;51.186;3.236;2022-07-29T12:50:18;33.80;39.30
13521;DHT22;6832;51.186;3.236;2022-07-29T12:52:45;33.80;38.80
13521;DHT22;6832;51.186;3.236;2022-07-29T12:58:03;33.90;38.60
13521;DHT22;6832;51.186;3.236;2022-07-29T13:03:49;34.00;38.90
13521;DHT22;6832;51.186;3.236;2022-07-29T13:06:48;34.00;38.80
13521;DHT22;6832;51.186;3.236;2022-07-29T13:09:36;34.10;37.90
13521;DHT22;6832;51.186;3.236;2022-07-29T13:15:15;34.20;38.00
13521;DHT22;6832;51.186;3.236;2022-07-29T13:20:49;34.30;37.50
13521;DHT22;6832;51.186;3.236;2022-07-29T13:23:19;34.40;38.50
13521;DHT22;6832;51.186;3.236;2022-07-29T13:25:47;34.40;37.80
13521;DHT22;6832;51.186;3.236;2022-07-29T13:28:16;34.50;38.10
13521;DHT22;6832;51.186;3.236;2022-07-29T13:30:45;34.50;38.10
13521;DHT22;6832;51.186;3.236;2022-07-29T13:33:15;34.60;37.70
13521;DHT22;6832;51.186;3.236;2022-07-29T13:35:45;34.60;37.90
13521;DHT22;6832;51.186;3.236;2022-07-29T13:47:18;34.80;37.30
13521;DHT22;6832;51.186;3.236;2022-07-29T13:49:46;34.90;37.60
13521;DHT22;6832;51.186;3.236;2022-07-29T13:52:32;34.90;37.90
13521;DHT22;6832;51.186;3.236;2022-07-29T13:55:12;34.90;36.80
13521;DHT22;6832;51.186;3.236;2022-07-29T14:00:48;34.80;37.80
13521;DHT22;6832;51.186;3.236;2022-07-29T14:03:52;34.80;37.80
13521;DHT22;6832;51.186;3.236;2022-07-29T14:06:23;34.70;37.10
13521;DHT22;6832;51.186;3.236;2022-07-29T14:08:50;34.70;37.40
13521;DHT22;6832;51.186;3.236;2022-07-29T14:11:33;34.60;37.50
13521;DHT22;6832;51.186;3.236;2022-07-29T14:14:15;34.60;37.30
13521;DHT22;6832;51.186;3.236;2022-07-29T14:16:43;34.60;37.70
13521;DHT22;6832;51.186;3.236;2022-07-29T14:19:20;34.60;37.70
13521;DHT22;6832;51.186;3.236;2022-07-29T14:21:58;34.50;37.70
13521;DHT22;6832;51.186;3.236;2022-07-29T14:24:27;34.50;37.90
13521;DHT22;6832;51.186;3.236;2022-07-29T14:26:54;34.50;38.70
13521;DHT22;6832;51.186;3.236;2022-07-29T14:29:27;34.40;37.80
13521;DHT22;6832;51.186;3.236;2022-07-29T14:31:59;34.40;38.00
13521;DHT22;6832;51.186;3.236;2022-07-29T14:34:29;34.40;37.90
13521;DHT22;6832;51.186;3.236;2022-07-29T14:37:02;34.30;37.90
13521;DHT22;6832;51.186;3.236;2022-07-29T14:39:45;34.30;37.90
13521;DHT22;6832;51.186;3.236;2022-07-29T14:42:13;34.20;38.00
13521;DHT22;6832;51.186;3.236;2022-07-29T14:44:40;34.10;38.30
13521;DHT22;6832;51.186;3.236;2022-07-29T14:47:08;34.10;38.40
13521;DHT22;6832;51.186;3.236;2022-07-29T14:49:37;34.10;38.20
13521;DHT22;6832;51.186;3.236;2022-07-29T14:52:05;34.00;38.10
13521;DHT22;6832;51.186;3.236;2022-07-29T14:54:32;34.00;37.50
13521;DHT22;6832;51.186;3.236;2022-07-29T14:57:02;34.00;38.00
13521;DHT22;6832;51.186;3.236;2022-07-29T14:59:31;33.90;38.10
13521;DHT22;6832;51.186;3.236;2022-07-29T15:02:06;33.90;38.10
13521;DHT22;6832;51.186;3.236;2022-07-29T15:04:33;33.80;38.10
13521;DHT22;6832;51.186;3.236;2022-07-29T15:14:10;33.70;38.30
13521;DHT22;6832;51.186;3.236;2022-07-29T15:16:42;33.60;38.40
13521;DHT22;6832;51.186;3.236;2022-07-29T15:19:12;33.50;38.80
13521;DHT22;6832;51.186;3.236;2022-07-29T15:21:48;33.40;38.80
13521;DHT22;6832;51.186;3.236;2022-07-29T15:24:38;33.40;38.70
13521;DHT22;6832;51.186;3.236;2022-07-29T15:27:21;33.20;38.60
13521;DHT22;6832;51.186;3.236;2022-07-29T15:29:54;33.20;38.80
13521;DHT22;6832;51.186;3.236;2022-07-29T15:32:45;33.00;39.00
13521;DHT22;6832;51.186;3.236;2022-07-29T15:38:36;32.80;38.70
13521;DHT22;6832;51.186;3.236;2022-07-29T15:41:12;32.70;39.20
13521;DHT22;6832;51.186;3.236;2022-07-29T15:43:46;32.50;39.30
13521;DHT22;6832;51.186;3.236;2022-07-29T15:49:07;32.40;39.60
13521;DHT22;6832;51.186;3.236;2022-07-29T15:51:44;32.40;39.90
13521;DHT22;6832;51.186;3.236;2022-07-29T15:54:35;32.30;39.70
13521;DHT22;6832;51.186;3.236;2022-07-29T16:00:24;32.30;40.00
13521;DHT22;6832;51.186;3.236;2022-07-29T16:02:57;32.30;39.20
13521;DHT22;6832;51.186;3.236;2022-07-29T16:05:35;32.20;38.60
13521;DHT22;6832;51.186;3.236;2022-07-29T16:08:03;32.20;38.80
13521;DHT22;6832;51.186;3.236;2022-07-29T16:10:33;32.20;38.90
13521;DHT22;6832;51.186;3.236;2022-07-29T16:13:01;32.20;38.80
13521;DHT22;6832;51.186;3.236;2022-07-29T16:15:41;32.10;39.00
13521;DHT22;6832;51.186;3.236;2022-07-29T16:18:08;32.00;38.80
13521;DHT22;6832;51.186;3.236;2022-07-29T16:20:38;32.00;39.30
13521;DHT22;6832;51.186;3.236;2022-07-29T16:23:06;32.00;39.30
13521;DHT22;6832;51.186;3.236;2022-07-29T16:25:37;32.00;39.10
13521;DHT22;6832;51.186;3.236;2022-07-29T16:28:12;31.90;39.30
13521;DHT22;6832;51.186;3.236;2022-07-29T16:30:52;31.80;39.20
13521;DHT22;6832;51.186;3.236;2022-07-29T16:33:20;31.70;39.00
13521;DHT22;6832;51.186;3.236;2022-07-29T16:35:50;31.70;39.20
13521;DHT22;6832;51.186;3.236;2022-07-29T16:38:18;31.70;39.30
13521;DHT22;6832;51.186;3.236;2022-07-29T16:40:46;31.70;39.50
13521;DHT22;6832;51.186;3.236;2022-07-29T16:43:14;31.60;39.60
13521;DHT22;6832;51.186;3.236;2022-07-29T16:45:41;31.50;39.50
13521;DHT22;6832;51.186;3.236;2022-07-29T16:48:08;31.50;39.70
13521;DHT22;6832;51.186;3.236;2022-07-29T16:50:37;31.40;40.10
13521;DHT22;6832;51.186;3.236;2022-07-29T16:53:07;31.40;39.80
13521;DHT22;6832;51.186;3.236;2022-07-29T16:55:37;31.30;39.90
13521;DHT22;6832;51.186;3.236;2022-07-29T16:58:07;31.20;39.80
13521;DHT22;6832;51.186;3.236;2022-07-29T17:00:36;31.20;39.60
13521;DHT22;6832;51.186;3.236;2022-07-29T17:03:06;31.10;39.60
13521;DHT22;6832;51.186;3.236;2022-07-29T17:05:34;31.00;39.90
13521;DHT22;6832;51.186;3.236;2022-07-29T17:08:03;30.80;40.20
13521;DHT22;6832;51.186;3.236;2022-07-29T17:10:41;30.80;40.30
13521;DHT22;6832;51.186;3.236;2022-07-29T17:13:10;30.60;40.30
13521;DHT22;6832;51.186;3.236;2022-07-29T17:15:40;30.50;39.80
13521;DHT22;6832;51.186;3.236;2022-07-29T17:18:09;30.30;39.90
13521;DHT22;6832;51.186;3.236;2022-07-29T17:20:39;30.20;40.10
13521;DHT22;6832;51.186;3.236;2022-07-29T17:23:10;30.00;40.30
13521;DHT22;6832;51.186;3.236;2022-07-29T17:25:38;29.90;40.60
13521;DHT22;6832;51.186;3.236;2022-07-29T17:28:27;29.80;41.20
13521;DHT22;6832;51.186;3.236;2022-07-29T17:30:55;29.70;41.20
13521;DHT22;6832;51.186;3.236;2022-07-29T17:33:37;29.50;41.20
13521;DHT22;6832;51.186;3.236;2022-07-29T17:36:29;29.40;42.50
13521;DHT22;6832;51.186;3.236;2022-07-29T17:39:33;29.30;42.60
13521;DHT22;6832;51.186;3.236;2022-07-29T17:42:06;29.10;42.40